Terminal Aerodrome Forecast
Issued by NWS

Home | Current Version | Previous Version | Text Only | Print | Product List | Glossary On
Versions: 1 2 3 4 5 6 7 8 9 10 11 12 13
000
FTUS42 TJSJ 021100
TAFJMZ
TAF
TJMZ 021120Z 0212/0312 11004KT P6SM FEW040
     FM021550 27008KT P6SM VCTS BKN030CB
     FM022100 05005KT P6SM SCT030=

USA.gov is the U.S. government's official web portal to all federal, state and local government web resources and services.